Time;durP1;ratioP1;P1;durP2;ratioP2;P2;SDS_P1;SDS_P2;PMS_P1;PMS_P2;Temp;Humidity;BMP_temperature;BMP_pressure;BME280_temperature;BME280_humidity;BME280_pressure;Samples;Min_cycle;Max_cycle;Signal;HPM_P1;HPM_P2
2022/09/21 00:00:11;;;;;;;0.30;0.30;;;;;;;11.95;62.93;102006.22;5123170;28;20035;-79
2022/09/21 00:02:42;;;;;;;0.93;0.90;;;;;;;11.88;62.83;102009.81;5120345;28;20099;-80
2022/09/21 00:05:12;;;;;;;2.00;1.90;;;;;;;11.93;62.91;102005.38;5120095;28;20035;-79
2022/09/21 00:07:43;;;;;;;0.40;0.40;;;;;;;11.97;63.09;102008.88;5107542;28;20067;-80
2022/09/21 00:10:15;;;;;;;0.32;0.32;;;;;;;11.95;62.49;102010.63;5104692;28;20039;-79
2022/09/21 00:12:47;;;;;;;0.63;0.63;;;;;;;11.89;61.90;102011.56;5137918;28;20034;-80
2022/09/21 00:15:18;;;;;;;0.55;0.55;;;;;;;11.89;62.73;102008.91;5107962;28;20506;-79
2022/09/21 00:17:53;;;;;;;1.08;0.65;;;;;;;11.82;62.41;102009.88;5132389;28;20071;-80
2022/09/21 00:20:25;;;;;;;4.10;2.05;;;;;;;11.78;62.26;102003.78;5116350;28;20069;-79
2022/09/21 00:22:55;;;;;;;2.42;2.15;;;;;;;11.70;62.21;102005.63;5100981;28;20151;-80
2022/09/21 00:25:26;;;;;;;3.50;2.08;;;;;;;11.71;62.53;102015.28;5139008;28;20084;-79
2022/09/21 00:27:56;;;;;;;2.33;1.95;;;;;;;11.64;62.41;102016.22;5137445;28;20114;-80
2022/09/21 00:30:27;;;;;;;0.70;0.70;;;;;;;11.71;62.80;102017.00;5113529;28;20121;-79
2022/09/21 00:32:58;;;;;;;0.50;0.50;;;;;;;11.62;62.60;102018.84;5153634;28;20057;-80
2022/09/21 00:35:29;;;;;;;1.02;1.00;;;;;;;11.64;63.17;102017.09;5109724;28;20030;-80
2022/09/21 00:38:10;;;;;;;0.60;0.60;;;;;;;11.67;62.95;102023.22;5121449;28;20057;-79
2022/09/21 00:40:41;;;;;;;0.25;0.25;;;;;;;11.65;62.98;102026.72;5109413;28;20027;-80
2022/09/21 00:43:15;;;;;;;21.48;2.88;;;;;;;11.61;63.16;102025.00;5108475;28;20056;-79
2022/09/21 00:45:49;;;;;;;1.67;1.58;;;;;;;11.56;62.94;102026.81;5125623;28;20038;-79
2022/09/21 00:48:19;;;;;;;11.65;0.98;;;;;;;11.56;63.18;102024.19;5124786;28;20731;-79
2022/09/21 00:50:52;;;;;;;0.40;0.40;;;;;;;11.54;62.92;102028.56;5107341;28;20065;-80
2022/09/21 00:53:24;;;;;;;;;;;;;;;11.53;63.23;102029.47;5111183;28;20065;-80
2022/09/21 00:55:56;;;;;;;0.35;0.35;;;;;;;11.49;62.89;102023.38;5106241;28;19918;-79
2022/09/21 00:58:34;;;;;;;0.63;0.63;;;;;;;11.52;62.80;102022.50;5120923;28;20123;-80
2022/09/21 01:01:06;;;;;;;3.50;2.35;;;;;;;11.51;63.38;102018.13;5103079;28;20612;-79
2022/09/21 01:03:44;;;;;;;0.55;0.55;;;;;;;11.48;63.59;102018.13;5137470;28;20561;-80
2022/09/21 01:06:18;;;;;;;0.30;0.30;;;;;;;11.46;63.41;102017.28;5106442;28;20058;-79
2022/09/21 01:08:54;;;;;;;;;;;;;;;11.46;63.40;102014.66;5110416;28;20438;-80
2022/09/21 01:11:45;;;;;;;6.85;2.90;;;;;;;11.38;63.34;102014.75;5136115;28;19918;-79
2022/09/21 01:14:52;;;;;;;1.75;1.60;;;;;;;11.40;62.97;102014.72;5118909;28;20052;-80
2022/09/21 01:17:39;;;;;;;1.48;1.38;;;;;;;11.37;63.43;102012.09;5066208;28;20054;-79
2022/09/21 01:20:47;;;;;;;0.65;0.65;;;;;;;11.29;63.37;102013.06;5120791;28;20031;-80
2022/09/21 01:23:37;;;;;;;0.35;0.35;;;;;;;11.28;63.06;102013.94;5120740;28;20701;-80
2022/09/21 01:26:35;;;;;;;0.50;0.50;;;;;;;11.27;62.83;102011.31;5103791;28;20548;-80
2022/09/21 01:29:27;;;;;;;0.40;0.40;;;;;;;11.24;63.09;102020.13;5103028;28;20054;-79
2022/09/21 01:32:05;;;;;;;1.00;1.00;;;;;;;11.25;62.96;102015.72;5127718;28;20047;-79
2022/09/21 01:34:50;;;;;;;1.38;1.27;;;;;;;11.22;62.96;102018.41;5120013;28;20121;-79
2022/09/21 01:37:43;;;;;;;1.45;0.40;;;;;;;11.18;63.50;102023.66;5121651;28;20181;-79
2022/09/21 01:40:22;;;;;;;0.52;0.52;;;;;;;11.16;63.37;102017.53;5130566;28;20039;-79
2022/09/21 01:42:55;;;;;;;2.22;1.13;;;;;;;11.16;63.40;102019.31;5104744;28;20034;-79
2022/09/21 01:45:31;;;;;;;0.50;0.50;;;;;;;11.11;63.49;102023.75;5135849;28;20097;-79
2022/09/21 01:48:11;;;;;;;1.00;0.95;;;;;;;11.11;63.36;102026.38;5134407;28;20039;-80
2022/09/21 01:50:50;;;;;;;0.80;0.55;;;;;;;11.08;63.57;102021.13;5125391;28;20038;-79
2022/09/21 01:53:26;;;;;;;30.02;4.28;;;;;;;11.03;62.88;102019.41;5111099;28;20648;-79
2022/09/21 01:56:06;;;;;;;6.70;3.67;;;;;;;11.05;63.62;102019.41;5105833;28;20116;-80
2022/09/21 01:58:40;;;;;;;;;;;;;;;11.01;63.23;102015.94;5123707;28;20036;-80
2022/09/21 02:01:16;;;;;;;0.30;0.30;;;;;;;11.01;63.02;102015.06;5121522;28;20001;-79
2022/09/21 02:03:54;;;;;;;0.55;0.55;;;;;;;10.95;63.50;102018.59;5138273;28;20043;-80
2022/09/21 02:06:27;;;;;;;0.50;0.50;;;;;;;10.92;63.25;102016.00;5155755;28;20035;-79
2022/09/21 02:08:57;;;;;;;4.72;1.88;;;;;;;10.92;63.47;102021.25;5140278;28;20055;-79
2022/09/21 02:11:28;;;;;;;0.93;0.93;;;;;;;10.90;63.50;102019.53;5127694;28;20039;-80
2022/09/21 02:13:58;;;;;;;3.08;1.58;;;;;;;10.91;63.47;102018.66;5112721;28;20063;-80
2022/09/21 02:16:39;;;;;;;16.63;3.55;;;;;;;10.84;63.23;102021.31;5121847;28;20122;-79
2022/09/21 02:19:22;;;;;;;1.65;1.42;;;;;;;10.88;63.35;102027.41;5114562;28;20054;-79
2022/09/21 02:22:14;;;;;;;0.40;0.40;;;;;;;10.86;62.95;102023.94;5098803;28;20102;-80
2022/09/21 02:25:32;;;;;;;2.15;1.92;;;;;;;10.74;63.51;102024.00;5124705;28;20042;-79
2022/09/21 02:28:18;;;;;;;3.10;2.05;;;;;;;10.69;63.07;102027.56;5085478;28;20067;-80
2022/09/21 02:31:26;;;;;;;3.13;2.03;;;;;;;10.71;63.63;102027.53;5116164;28;20495;-80
2022/09/21 02:34:22;;;;;;;0.57;0.57;;;;;;;10.67;63.82;102029.31;5110166;28;20133;-79
2022/09/21 02:36:58;;;;;;;0.40;0.40;;;;;;;10.64;63.80;102023.22;5101509;28;20031;-79
2022/09/21 02:39:56;;;;;;;0.80;0.80;;;;;;;10.66;63.47;102024.09;5120672;28;20054;-79
2022/09/21 02:42:32;;;;;;;0.30;0.30;;;;;;;10.62;63.58;102023.19;5104233;28;20649;-79
2022/09/21 02:45:17;;;;;;;0.60;0.60;;;;;;;10.61;63.03;102025.84;5132326;28;20030;-79
2022/09/21 02:47:58;;;;;;;0.80;0.80;;;;;;;10.59;63.80;102028.50;5103928;28;20054;-79
2022/09/21 02:50:35;;;;;;;0.28;0.28;;;;;;;10.59;63.29;102028.50;5141570;28;20051;-80
2022/09/21 02:53:10;;;;;;;2.42;1.42;;;;;;;10.51;63.86;102025.03;5115537;28;20617;-79
2022/09/21 02:55:44;;;;;;;0.98;0.98;;;;;;;10.53;63.66;102025.91;5142984;28;20307;-80
2022/09/21 02:58:15;;;;;;;0.95;0.50;;;;;;;10.52;63.83;102021.53;5121926;28;20041;-79
2022/09/21 03:01:56;;;;;;;;;;;;;;;;;;;;;
2022/09/21 03:05:18;;;;;;;0.90;0.90;;;;;;;10.42;62.78;102015.44;5121266;28;20043;-79
2022/09/21 03:12:25;;;;;;;0.32;0.32;;;;;;;10.37;63.50;102012.84;4992445;29;20495;-80
2022/09/21 03:15:39;;;;;;;2.40;1.33;;;;;;;10.28;64.03;102009.38;4992298;29;20130;-79
2022/09/21 03:18:13;;;;;;;1.30;1.20;;;;;;;10.28;63.49;102018.13;5070242;29;20083;-79
2022/09/21 03:20:58;;;;;;;2.33;1.83;;;;;;;10.26;62.82;102014.66;5102644;28;20039;-79
2022/09/21 03:23:46;;;;;;;1.15;0.60;;;;;;;10.22;63.89;102021.66;5101003;28;20121;-79
2022/09/21 03:26:27;;;;;;;0.70;0.70;;;;;;;10.20;63.16;102025.19;5105621;28;20118;-79
2022/09/21 03:29:16;;;;;;;0.63;0.63;;;;;;;10.18;62.97;102032.16;5111291;28;20073;-79
2022/09/21 03:31:52;;;;;;;1.50;0.82;;;;;;;10.14;63.98;102025.19;5125534;28;20038;-80
2022/09/21 03:34:23;;;;;;;0.50;0.50;;;;;;;10.14;63.29;102022.56;5144140;28;20172;-81
2022/09/21 03:37:11;;;;;;;0.55;0.55;;;;;;;10.15;63.75;102032.16;5110264;28;20027;-80
2022/09/21 03:39:41;;;;;;;0.50;0.50;;;;;;;10.16;63.50;102019.06;5121661;28;20042;-79
2022/09/21 03:42:17;;;;;;;1.05;1.05;;;;;;;10.15;63.42;102026.94;5117336;28;20047;-78
2022/09/21 03:44:48;;;;;;;1.50;1.35;;;;;;;10.12;63.20;102026.97;5104284;28;20039;-78
2022/09/21 03:47:21;;;;;;;1.13;1.13;;;;;;;10.03;63.26;102022.59;5108085;28;20120;-78
2022/09/21 03:49:58;;;;;;;1.13;1.13;;;;;;;10.04;63.18;102026.97;5107032;28;20073;-79
2022/09/21 03:52:29;;;;;;;0.85;0.85;;;;;;;10.00;63.24;102023.50;5110723;28;20039;-79
2022/09/21 03:54:59;;;;;;;1.58;1.17;;;;;;;10.04;63.83;102025.22;5130013;28;20035;-79
2022/09/21 03:57:39;;;;;;;3.70;1.48;;;;;;;10.02;63.34;102023.47;5121831;28;20070;-78
2022/09/21 04:00:13;;;;;;;1.45;1.35;;;;;;;10.00;63.52;102022.63;5123262;28;20039;-79
2022/09/21 04:02:47;;;;;;;2.70;1.75;;;;;;;9.93;63.93;102027.88;5094487;28;20134;-79
2022/09/21 04:05:23;;;;;;;0.93;0.93;;;;;;;9.92;63.83;102025.28;5094015;28;20034;-81
2022/09/21 04:08:00;;;;;;;0.85;0.85;;;;;;;9.90;63.69;102030.53;5125429;28;20042;-78
2022/09/21 04:10:49;;;;;;;0.73;0.73;;;;;;;9.90;63.36;102029.66;5112251;28;20058;-78
2022/09/21 04:13:20;;;;;;;4.05;1.08;;;;;;;9.84;63.10;102032.28;5123292;28;20625;-78
2022/09/21 04:15:50;;;;;;;0.75;0.70;;;;;;;9.80;63.16;102035.78;5122464;28;20109;-78
2022/09/21 04:18:21;;;;;;;0.70;0.70;;;;;;;9.78;63.47;102027.94;5117529;28;20150;-78
2022/09/21 04:20:51;;;;;;;11.23;2.08;;;;;;;9.76;63.54;102035.81;5121990;28;20023;-78
2022/09/21 04:23:22;;;;;;;1.25;1.15;;;;;;;9.80;63.24;102030.53;5139568;28;20057;-78
2022/09/21 04:25:54;;;;;;;1.17;1.17;;;;;;;9.75;63.43;102031.44;5134867;28;20049;-78
2022/09/21 04:28:25;;;;;;;0.68;0.68;;;;;;;9.66;63.53;102034.09;5121297;28;20054;-78
2022/09/21 04:30:57;;;;;;;1.23;1.17;;;;;;;9.64;63.55;102035.81;5108037;28;20478;-78
2022/09/21 04:33:27;;;;;;;1.50;1.42;;;;;;;9.61;63.57;102035.84;5122569;28;20319;-78
2022/09/21 04:35:58;;;;;;;2.90;2.15;;;;;;;9.62;63.52;102037.59;5132439;28;20077;-78
2022/09/21 04:38:30;;;;;;;1.08;0.88;;;;;;;9.60;63.59;102034.09;5121288;28;20054;-78
2022/09/21 04:41:04;;;;;;;1.08;1.08;;;;;;;9.64;63.83;102035.81;5118064;28;20121;-78
2022/09/21 04:43:42;;;;;;;2.55;1.88;;;;;;;9.57;63.78;102034.97;5138277;28;20081;-78
2022/09/21 04:46:15;;;;;;;12.40;1.75;;;;;;;9.58;63.73;102038.47;5139436;28;20549;-78
2022/09/21 04:48:46;;;;;;;;;;;;;;;9.58;63.97;102038.47;5103948;28;20051;-78
2022/09/21 04:51:16;;;;;;;7.65;2.55;;;;;;;9.58;63.73;102043.72;5138445;28;19913;-78
2022/09/21 04:53:47;;;;;;;4.82;1.55;;;;;;;9.57;64.19;102044.56;5112556;28;20424;-79
2022/09/21 04:56:18;;;;;;;0.47;0.47;;;;;;;9.54;64.06;102045.47;5109729;28;20660;-79
2022/09/21 04:58:49;;;;;;;0.57;0.57;;;;;;;9.47;63.67;102048.97;5111849;28;20043;-79
2022/09/21 05:01:19;;;;;;;0.98;0.70;;;;;;;9.50;64.44;102053.31;5144265;28;20042;-78
2022/09/21 05:03:50;;;;;;;3.00;0.77;;;;;;;9.47;64.07;102048.06;5137156;28;20782;-79
2022/09/21 05:06:21;;;;;;;0.82;0.82;;;;;;;9.52;64.10;102051.59;5126351;28;20042;-79
2022/09/21 05:11:41;;;;;;;4.85;2.20;;;;;;;9.48;64.37;102055.06;5118049;28;20069;-78
2022/09/21 05:14:11;;;;;;;1.08;1.02;;;;;;;9.36;64.20;102056.84;5117022;28;20531;-79
2022/09/21 05:16:42;;;;;;;0.85;0.85;;;;;;;9.40;64.39;102063.81;5111130;28;20038;-79
2022/09/21 05:19:13;;;;;;;0.65;0.65;;;;;;;9.44;63.97;102059.44;5101310;28;20042;-78
2022/09/21 05:21:45;;;;;;;2.63;2.25;;;;;;;9.42;63.88;102059.44;5141994;28;20034;-79
2022/09/21 05:24:16;;;;;;;0.88;0.88;;;;;;;9.40;63.58;102071.66;5127644;28;20054;-79
2022/09/21 05:26:46;;;;;;;0.50;0.50;;;;;;;9.40;64.41;102071.66;5128303;28;20606;-79
2022/09/21 05:29:17;;;;;;;0.63;0.63;;;;;;;9.40;64.37;102074.28;5118419;28;20134;-79
2022/09/21 05:32:18;;;;;;;3.30;1.50;;;;;;;9.34;64.42;102078.69;5115913;28;20038;-79
2022/09/21 05:34:52;;;;;;;1.83;1.73;;;;;;;9.35;64.28;102073.44;5123674;28;20523;-79
2022/09/21 05:37:47;;;;;;;1.70;1.60;;;;;;;9.32;63.85;102077.78;5105138;28;20043;-79
2022/09/21 05:40:20;;;;;;;0.77;0.77;;;;;;;9.33;64.50;102079.53;5121472;28;20046;-78
2022/09/21 05:42:51;;;;;;;3.10;2.90;;;;;;;9.33;64.50;102085.66;5143278;28;20047;-79
2022/09/21 05:45:22;;;;;;;0.40;0.40;;;;;;;9.32;64.15;102091.75;5108617;28;20039;-79
2022/09/21 05:48:22;;;;;;;1.13;1.08;;;;;;;9.32;63.60;102086.50;5120810;28;20126;-78
2022/09/21 05:50:56;;;;;;;0.70;0.70;;;;;;;9.34;63.89;102079.53;5122048;28;20573;-79
2022/09/21 05:54:12;;;;;;;1.17;1.13;;;;;;;9.36;63.98;102085.66;5108017;28;20055;-79
2022/09/21 05:56:51;;;;;;;1.45;1.25;;;;;;;9.34;64.39;102090.00;5046031;29;21565;-79
2022/09/21 06:00:23;;;;;;;0.60;0.60;;;;;;;9.35;64.05;102091.75;5036726;29;20056;-79
2022/09/21 06:03:24;;;;;;;0.60;0.60;;;;;;;9.38;64.82;102091.75;5133962;28;20046;-79
2022/09/21 06:05:58;;;;;;;0.82;0.82;;;;;;;9.35;64.19;102091.75;5118344;28;20124;-80
2022/09/21 06:08:29;;;;;;;2.22;2.03;;;;;;;9.32;64.34;102097.00;5119353;28;20046;-79
2022/09/21 06:10:59;;;;;;;0.55;0.55;;;;;;;9.32;64.63;102101.38;5103556;28;20361;-80
2022/09/21 06:13:40;;;;;;;0.40;0.40;;;;;;;9.28;63.89;102098.75;5112712;28;20061;-80
2022/09/21 06:16:10;;;;;;;0.77;0.77;;;;;;;9.28;64.23;102096.13;5136728;28;20070;-80
2022/09/21 06:18:42;;;;;;;0.55;0.55;;;;;;;9.28;64.53;102101.34;5128061;28;20444;-80
2022/09/21 06:21:13;;;;;;;1.23;1.13;;;;;;;9.28;64.21;102110.97;5099530;28;20124;-79
2022/09/21 06:23:44;;;;;;;0.60;0.60;;;;;;;9.26;64.62;102115.31;5113789;28;20050;-80
2022/09/21 06:26:16;;;;;;;2.70;2.50;;;;;;;9.22;64.71;102106.59;5117597;28;20634;-79
2022/09/21 06:28:48;;;;;;;0.50;0.50;;;;;;;9.24;64.51;102101.34;5115270;28;20197;-79
2022/09/21 06:31:19;;;;;;;0.65;0.65;;;;;;;9.27;64.87;102110.09;5116250;28;20118;-79
2022/09/21 06:33:49;;;;;;;0.90;0.88;;;;;;;9.25;64.87;102103.09;5106483;28;20062;-79
2022/09/21 06:36:21;;;;;;;15.82;1.05;;;;;;;9.23;65.33;102110.06;5106102;28;20027;-79
2022/09/21 06:38:51;;;;;;;0.57;0.57;;;;;;;9.23;65.18;102116.22;5118302;28;20067;-79
2022/09/21 06:41:22;;;;;;;1.42;1.33;;;;;;;9.23;65.36;102112.69;5125716;28;20136;-79
2022/09/21 06:43:56;;;;;;;1.42;1.33;;;;;;;9.26;65.94;102113.56;5116270;28;20038;-79
2022/09/21 06:46:35;;;;;;;1.55;1.33;;;;;;;9.27;65.77;102109.22;5118517;28;20047;-81
2022/09/21 06:49:09;;;;;;;0.38;0.38;;;;;;;9.28;66.18;102121.44;5106920;28;20050;-79
2022/09/21 06:51:42;;;;;;;0.65;0.65;;;;;;;9.31;67.32;102113.56;5122337;28;20035;-80
2022/09/21 06:54:23;;;;;;;4.55;1.65;;;;;;;9.32;67.42;102117.94;5083423;28;20046;-79
2022/09/21 06:56:54;;;;;;;2.35;1.42;;;;;;;9.35;66.74;102131.06;5105910;28;20495;-79
2022/09/21 06:59:27;;;;;;;;;;;;;;;9.39;66.63;102119.69;5120469;28;20046;-79
2022/09/21 07:02:13;;;;;;;0.60;0.60;;;;;;;9.47;65.97;102121.44;5123498;28;19905;-78
2022/09/21 07:04:43;;;;;;;2.30;1.05;;;;;;;9.52;66.33;102125.81;5116594;28;20035;-79
2022/09/21 07:07:16;;;;;;;1.23;1.15;;;;;;;9.57;68.04;102124.06;5120109;28;20039;-79
2022/09/21 07:09:47;;;;;;;2.15;1.20;;;;;;;9.63;68.82;102123.19;5134835;28;20122;-79
2022/09/21 07:12:23;;;;;;;0.60;0.60;;;;;;;9.64;73.43;102119.69;5113921;28;20146;-79
2022/09/21 07:15:04;;;;;;;;;;;;;;;;;;;;;
2022/09/21 07:17:45;;;;;;;4.32;1.58;;;;;;;9.76;71.12;102132.78;5136321;28;20090;-79
2022/09/21 07:20:19;;;;;;;1.65;1.23;;;;;;;9.83;71.15;102130.16;5104589;29;20448;-79
2022/09/21 07:22:50;;;;;;;0.90;0.80;;;;;;;9.88;70.88;102126.66;5119652;28;20054;-79
2022/09/21 07:25:31;;;;;;;1.23;1.17;;;;;;;9.80;75.46;102125.81;5106031;28;20411;-79
2022/09/21 07:28:10;;;;;;;0.60;0.60;;;;;;;9.92;71.18;102130.16;5136985;28;20038;-80
2022/09/21 07:30:40;;;;;;;1.63;1.52;;;;;;;9.96;70.18;102131.88;5125289;28;20035;-79
2022/09/21 07:33:14;;;;;;;1.50;1.40;;;;;;;10.01;71.10;102132.75;5081643;28;20054;-79
2022/09/21 07:35:55;;;;;;;0.43;0.43;;;;;;;10.12;72.09;102129.25;5111787;28;20015;-79
2022/09/21 07:38:43;;;;;;;1.55;1.45;;;;;;;10.26;71.35;102124.81;5112124;28;20084;-79
2022/09/21 07:41:16;;;;;;;1.42;1.33;;;;;;;10.29;71.14;102127.41;5116976;28;20118;-79
2022/09/21 07:43:52;;;;;;;0.90;0.90;;;;;;;10.29;70.52;102124.78;5124769;28;20162;-79
2022/09/21 07:46:25;;;;;;;1.70;1.60;;;;;;;10.57;70.02;102124.72;5159663;28;20042;-79
2022/09/21 07:48:56;;;;;;;1.20;1.10;;;;;;;10.57;69.78;102123.88;5119519;28;20031;-79
2022/09/21 07:51:32;;;;;;;1.20;1.15;;;;;;;10.58;71.66;102115.97;5133873;28;20407;-79
2022/09/21 07:54:14;;;;;;;1.30;1.27;;;;;;;10.55;69.90;102118.59;5111506;28;20122;-79
2022/09/21 07:59:04;;;;;;;0.70;0.70;;;;;;;10.64;73.05;102115.94;5129963;28;20077;-79
2022/09/21 07:59:48;;;;;;;1.60;1.17;;;;;;;10.62;71.60;102122.09;5126951;28;20046;-80
2022/09/21 08:02:18;;;;;;;1.00;1.00;;;;;;;10.82;71.44;102119.34;5132246;28;20090;-79
2022/09/21 08:04:54;;;;;;;1.60;1.50;;;;;;;10.80;70.36;102122.00;5126206;28;20679;-79
2022/09/21 08:07:31;;;;;;;0.65;0.65;;;;;;;10.81;71.65;102130.72;5119367;28;20055;-80
2022/09/21 08:10:19;;;;;;;;;;;;;;;;;;;;;
2022/09/21 08:12:53;;;;;;;0.82;0.82;;;;;;;10.92;70.24;102122.78;5102225;28;20531;-79
2022/09/21 08:15:28;;;;;;;1.58;1.48;;;;;;;10.94;71.61;102119.28;5121850;28;20107;-80
2022/09/21 08:18:01;;;;;;;;;;;;;;;11.00;70.84;102127.13;5100156;28;20051;-79
2022/09/21 08:20:42;;;;;;;1.45;1.27;;;;;;;11.02;70.96;102121.84;5102621;28;19922;-79
2022/09/21 08:23:27;;;;;;;0.85;0.85;;;;;;;11.12;73.63;102133.16;5117400;28;20041;-79
2022/09/21 08:26:28;;;;;;;0.80;0.80;;;;;;;11.15;72.36;102128.78;5127490;28;20046;-79
2022/09/21 08:29:15;;;;;;;;;;;;;;;;;;;;;
2022/09/21 08:31:56;;;;;;;3.45;1.42;;;;;;;11.25;75.03;102134.84;5122585;28;20031;-79
2022/09/21 08:34:27;;;;;;;2.67;1.73;;;;;;;11.33;75.92;102135.66;5127487;28;20034;-79
2022/09/21 08:37:20;;;;;;;2.15;1.80;;;;;;;11.36;75.66;102137.38;5119522;28;20140;-79
2022/09/21 08:39:51;;;;;;;0.95;0.90;;;;;;;11.38;73.63;102134.72;5127083;28;20034;-79
2022/09/21 08:43:12;;;;;;;1.10;1.10;;;;;;;11.42;73.96;102131.22;5110923;28;20400;-79
2022/09/21 08:45:45;;;;;;;1.42;1.08;;;;;;;11.46;76.14;102125.91;5037050;29;20068;-79
2022/09/21 08:48:29;;;;;;;0.63;0.63;;;;;;;11.49;73.82;102125.88;5020739;29;20071;-79
2022/09/21 08:51:23;;;;;;;2.92;1.63;;;;;;;11.59;73.05;102131.06;5100635;28;20070;-79
2022/09/21 08:54:23;;;;;;;0.40;0.40;;;;;;;11.59;74.31;102124.06;5103164;28;20045;-79
2022/09/21 08:57:23;;;;;;;0.68;0.68;;;;;;;11.60;74.82;102131.06;5112576;28;20034;-79
2022/09/21 09:00:23;;;;;;;1.58;1.48;;;;;;;11.58;76.32;102129.31;5111044;28;20125;-79
2022/09/21 09:03:26;;;;;;;0.85;0.85;;;;;;;11.64;75.93;102126.66;5106636;28;20213;-79
2022/09/21 09:06:06;;;;;;;0.82;0.82;;;;;;;11.70;75.63;102125.69;5111500;28;20038;-81
2022/09/21 09:09:09;;;;;;;1.77;1.67;;;;;;;11.74;75.97;102137.94;5112574;28;20037;-81
2022/09/21 09:11:53;;;;;;;1.13;1.02;;;;;;;11.74;76.20;102130.91;5082766;28;20558;-80
2022/09/21 09:14:32;;;;;;;1.38;1.27;;;;;;;11.63;77.90;102125.75;5105838;28;20046;-80
2022/09/21 09:17:29;;;;;;;1.00;1.00;;;;;;;11.59;77.95;102131.94;5098761;28;20518;-82
2022/09/21 09:20:20;;;;;;;1.52;1.42;;;;;;;11.61;78.46;102131.91;5124918;28;20055;-82
2022/09/21 09:23:19;;;;;;;0.63;0.63;;;;;;;11.68;77.29;102133.59;5113548;28;20050;-79
2022/09/21 09:25:53;;;;;;;2.53;2.33;;;;;;;11.82;77.77;102130.84;5149411;28;20039;-80
2022/09/21 09:28:45;;;;;;;;;;;;;;;;;;;;;
2022/09/21 09:31:31;;;;;;;1.08;1.08;;;;;;;11.84;77.64;102136.09;5139306;28;20050;-81
2022/09/21 09:34:23;;;;;;;1.63;1.52;;;;;;;11.84;78.11;102130.84;5107634;28;20055;-80
2022/09/21 09:37:13;;;;;;;1.15;1.05;;;;;;;11.84;77.17;102134.34;5138218;28;20039;-81
2022/09/21 09:39:52;;;;;;;1.35;1.25;;;;;;;11.92;76.72;102132.50;5144816;28;20648;-80
2022/09/21 09:43:14;;;;;;;1.20;1.15;;;;;;;11.95;77.04;102129.84;5112441;28;20075;-80
2022/09/21 09:45:48;;;;;;;1.33;1.23;;;;;;;12.02;76.71;102132.47;5074693;29;20039;-81
2022/09/21 09:48:35;;;;;;;1.00;1.00;;;;;;;11.95;78.15;102127.19;5097980;28;20046;-81
2022/09/21 09:51:14;;;;;;;2.22;1.13;;;;;;;12.01;78.11;102130.72;5110810;28;20516;-81
2022/09/21 09:53:48;;;;;;;0.75;0.75;;;;;;;11.96;77.78;102133.34;5113197;28;20043;-80
2022/09/21 09:56:47;;;;;;;1.48;1.38;;;;;;;12.01;77.31;102135.97;5111435;28;20023;-80
2022/09/21 09:59:43;;;;;;;1.42;1.33;;;;;;;12.06;76.92;102127.16;5112095;28;20178;-80
2022/09/21 10:02:25;;;;;;;6.18;1.42;;;;;;;12.10;76.81;102135.88;5097242;28;20049;-80
2022/09/21 10:05:20;;;;;;;1.20;1.15;;;;;;;12.15;76.84;102123.53;5101498;28;20089;-81
2022/09/21 10:07:56;;;;;;;1.23;1.17;;;;;;;12.15;77.33;102125.31;5122641;28;20046;-80
2022/09/21 10:10:39;;;;;;;0.95;0.95;;;;;;;12.19;76.56;102125.22;5151772;28;20038;-82
2022/09/21 10:13:27;;;;;;;0.60;0.60;;;;;;;12.21;76.35;102123.44;5099269;28;20035;-81
2022/09/21 10:16:19;;;;;;;0.47;0.47;;;;;;;12.24;75.65;102123.44;5124119;28;20065;-81
2022/09/21 10:19:28;;;;;;;4.20;1.65;;;;;;;12.20;76.10;102124.34;5126626;28;20038;-82
2022/09/21 10:22:10;;;;;;;1.70;1.60;;;;;;;12.26;75.41;102126.94;5135050;28;20035;-81
2022/09/21 10:25:17;;;;;;;1.98;1.58;;;;;;;12.31;75.73;102118.97;5108436;28;20027;-82
2022/09/21 10:27:53;;;;;;;1.92;1.55;;;;;;;12.32;75.31;102123.31;5109586;28;20043;-80
2022/09/21 10:30:38;;;;;;;16.05;2.35;;;;;;;12.34;75.34;102118.06;5109762;28;20023;-81
2022/09/21 10:33:24;;;;;;;5.22;2.10;;;;;;;12.35;75.83;102119.81;5138386;28;20052;-81
2022/09/21 10:35:57;;;;;;;1.15;1.15;;;;;;;12.41;75.15;102115.31;5134843;28;20085;-80
2022/09/21 10:38:27;;;;;;;1.00;1.00;;;;;;;12.42;75.15;102116.19;5100005;28;20039;-81
2022/09/21 10:40:58;;;;;;;0.60;0.60;;;;;;;12.45;74.66;102116.16;5107901;28;20439;-80
2022/09/21 10:43:35;;;;;;;1.08;1.02;;;;;;;12.47;74.65;102111.75;5112538;28;20070;-80
2022/09/21 10:46:09;;;;;;;1.38;1.27;;;;;;;12.54;73.92;102116.03;5136061;28;20034;-80
2022/09/21 10:48:44;;;;;;;0.60;0.60;;;;;;;12.51;73.98;102112.56;5136831;28;20078;-81
2022/09/21 10:51:28;;;;;;;0.90;0.82;;;;;;;12.54;74.17;102109.91;5139936;28;20115;-81
2022/09/21 10:54:25;;;;;;;3.08;2.38;;;;;;;12.59;73.80;102108.06;5142470;28;20041;-81
2022/09/21 10:57:19;;;;;;;0.60;0.60;;;;;;;12.59;73.39;102108.97;5103347;28;20034;-81
2022/09/21 10:59:51;;;;;;;1.00;1.00;;;;;;;12.63;73.30;102109.78;5105736;28;20073;-81
2022/09/21 11:02:34;;;;;;;2.65;1.38;;;;;;;12.68;73.37;102109.72;5103193;28;20381;-81
2022/09/21 11:05:16;;;;;;;0.52;0.52;;;;;;;12.72;72.66;102108.78;5109731;28;20038;-81
2022/09/21 11:08:36;;;;;;;0.93;0.93;;;;;;;12.74;72.90;102109.63;5136434;28;20043;-81
2022/09/21 11:11:31;;;;;;;0.93;0.82;;;;;;;12.80;72.46;102111.31;5054902;28;20238;-81
2022/09/21 11:14:26;;;;;;;0.70;0.70;;;;;;;12.80;72.38;102106.91;5103806;28;20042;-81
2022/09/21 11:17:34;;;;;;;0.77;0.77;;;;;;;12.84;72.53;102113.91;5135529;28;20106;-81
2022/09/21 11:20:37;;;;;;;0.93;0.93;;;;;;;12.91;72.12;102104.13;5076825;28;20459;-81
2022/09/21 11:23:34;;;;;;;0.40;0.40;;;;;;;12.97;71.94;102108.44;5125719;28;20043;-81
2022/09/21 11:26:32;;;;;;;0.85;0.82;;;;;;;12.95;70.81;102100.56;5108678;28;20027;-81
2022/09/21 11:29:26;;;;;;;0.47;0.47;;;;;;;12.98;69.78;102104.91;5087033;28;20827;-81
2022/09/21 11:32:49;;;;;;;0.38;0.32;;;;;;;13.03;69.55;102100.44;5106148;28;20182;-81
2022/09/21 11:35:53;;;;;;;0.60;0.60;;;;;;;13.06;70.26;102097.75;5091982;28;20039;-81
2022/09/21 11:38:43;;;;;;;2.22;1.52;;;;;;;13.10;70.50;102093.31;5122637;28;20069;-81
2022/09/21 11:41:35;;;;;;;1.42;1.33;;;;;;;13.12;70.63;102097.66;5108245;28;20054;-81
2022/09/21 11:44:23;;;;;;;0.63;0.63;;;;;;;13.13;69.55;102086.22;5125399;28;20050;-81
2022/09/21 11:47:16;;;;;;;0.30;0.30;;;;;;;13.25;68.53;102086.94;5117513;28;20106;-81
2022/09/21 11:50:23;;;;;;;1.63;1.17;;;;;;;13.43;65.74;102085.78;5122057;28;20659;-81
2022/09/21 11:53:54;;;;;;;0.30;0.30;;;;;;;13.52;65.10;102081.19;5110898;28;20069;-81
2022/09/21 11:56:46;;;;;;;0.88;0.88;;;;;;;13.54;64.19;102074.13;5082519;28;20070;-81
2022/09/21 11:59:29;;;;;;;0.25;0.25;;;;;;;13.59;63.94;102071.41;5129491;28;20043;-81
2022/09/21 12:02:21;;;;;;;0.40;0.40;;;;;;;13.65;64.58;102075.72;5106545;28;20035;-81
2022/09/21 12:05:19;;;;;;;0.85;0.55;;;;;;;13.72;66.04;102063.31;5128293;28;20408;-80
2022/09/21 12:08:16;;;;;;;0.30;0.30;;;;;;;13.74;66.13;102072.03;5138282;28;20538;-81
2022/09/21 12:10:56;;;;;;;0.30;0.30;;;;;;;13.79;65.47;102068.41;5114355;28;20042;-81
2022/09/21 12:13:44;;;;;;;0.30;0.30;;;;;;;13.88;65.31;102059.47;5138295;28;20122;-81
2022/09/21 12:16:32;;;;;;;0.95;0.95;;;;;;;13.95;64.11;102058.44;5141503;28;20031;-81
2022/09/21 12:19:17;;;;;;;1.88;1.20;;;;;;;14.03;65.41;102060.91;5106799;28;20139;-81
2022/09/21 12:21:54;;;;;;;0.40;0.40;;;;;;;14.13;63.88;102056.34;5140283;28;20053;-81
2022/09/21 12:24:32;;;;;;;0.28;0.28;;;;;;;14.27;63.29;102056.03;5120793;28;20130;-81
2022/09/21 12:27:16;;;;;;;0.35;0.35;;;;;;;14.30;62.44;102048.03;5107482;28;20043;-79
2022/09/21 12:29:52;;;;;;;0.38;0.38;;;;;;;14.29;64.49;102051.59;5107063;28;20042;-80
2022/09/21 12:32:46;;;;;;;0.40;0.40;;;;;;;14.34;64.86;102052.34;5139119;28;20118;-80
2022/09/21 12:35:21;;;;;;;0.85;0.82;;;;;;;14.40;64.96;102044.31;5138249;28;20045;-79
2022/09/21 12:38:08;;;;;;;0.45;0.45;;;;;;;14.43;64.41;102038.94;5122094;28;20034;-80
2022/09/21 12:41:15;;;;;;;1.25;1.15;;;;;;;14.55;63.53;102047.50;5136603;28;20101;-79
2022/09/21 12:44:25;;;;;;;2.72;1.25;;;;;;;14.93;59.51;102037.84;5133045;28;20650;-80
2022/09/21 12:47:07;;;;;;;0.50;0.50;;;;;;;14.88;61.16;102031.81;5115808;28;20035;-80
2022/09/21 12:49:45;;;;;;;0.63;0.63;;;;;;;14.90;63.59;102036.13;5120773;28;20035;-80